Time;durP1;ratioP1;P1;durP2;ratioP2;P2;SDS_P1;SDS_P2;PMS_P1;PMS_P2;Temp;Humidity;BMP_temperature;BMP_pressure;BME280_temperature;BME280_humidity;BME280_pressure;Samples;Min_cycle;Max_cycle;Signal;HPM_P1;HPM_P2
2021/04/17 00:01:00;;;;;;;22.10;13.45;;;;;;;4.16;80.87;100548.13;5097466;28;20031;-78
2021/04/17 00:03:25;;;;;;;22.90;13.65;;;;;;;4.17;80.96;100543.69;5115678;28;20043;-78
2021/04/17 00:05:51;;;;;;;22.55;13.85;;;;;;;4.21;80.59;100543.53;5097892;28;20469;-79
2021/04/17 00:08:17;;;;;;;21.65;12.93;;;;;;;4.02;80.56;100521.22;5097421;28;20059;-77
2021/04/17 00:10:43;;;;;;;20.42;13.32;;;;;;;4.18;80.73;100548.06;5097460;28;20038;-78
2021/04/17 00:13:09;;;;;;;22.10;13.70;;;;;;;4.22;80.45;100545.28;5115566;28;20385;-77
2021/04/17 00:15:35;;;;;;;21.45;13.52;;;;;;;4.15;80.63;100543.75;5115850;28;20175;-77
2021/04/17 00:18:00;;;;;;;23.40;14.30;;;;;;;4.18;80.53;100532.22;5080391;28;20536;-76
2021/04/17 00:20:25;;;;;;;21.48;12.82;;;;;;;4.04;80.90;100537.88;5079988;28;20085;-76
2021/04/17 00:22:51;;;;;;;21.55;13.75;;;;;;;4.09;80.56;100516.66;5097549;28;20197;-77
2021/04/17 00:25:16;;;;;;;22.42;14.13;;;;;;;4.09;80.98;100527.22;5115105;28;20032;-77
2021/04/17 00:27:42;;;;;;;21.13;13.30;;;;;;;4.12;80.63;100521.84;5096973;28;20058;-77
2021/04/17 00:30:08;;;;;;;22.35;13.52;;;;;;;4.22;80.15;100512.72;5095660;28;20040;-75
2021/04/17 00:32:33;;;;;;;22.45;12.80;;;;;;;4.21;80.27;100518.91;5097081;28;20484;-77
2021/04/17 00:34:59;;;;;;;25.15;13.68;;;;;;;4.16;80.34;100516.44;5096872;28;20119;-75
2021/04/17 00:37:25;;;;;;;22.05;13.52;;;;;;;4.13;80.77;100523.56;5079715;28;20028;-75
2021/04/17 00:39:50;;;;;;;25.65;15.18;;;;;;;4.02;80.50;100500.13;5080012;28;20165;-76
2021/04/17 00:42:16;;;;;;;23.58;14.55;;;;;;;4.18;80.48;100511.09;5114747;28;20349;-74
2021/04/17 00:44:42;;;;;;;21.85;13.63;;;;;;;4.12;80.67;100511.28;5097037;28;20039;-73
2021/04/17 00:47:08;;;;;;;23.60;13.95;;;;;;;4.03;81.19;100496.56;5115346;28;20039;-76
2021/04/17 00:49:34;;;;;;;21.67;13.82;;;;;;;4.08;81.15;100499.94;5096682;28;20040;-76
2021/04/17 00:52:00;;;;;;;22.80;13.50;;;;;;;4.08;80.95;100486.75;5114694;28;20035;-75
2021/04/17 00:54:26;;;;;;;22.45;14.07;;;;;;;4.10;80.99;100491.97;5096150;28;20063;-76
2021/04/17 00:56:52;;;;;;;24.60;14.05;;;;;;;3.92;80.92;100462.56;5079896;28;20089;-76
2021/04/17 00:59:17;;;;;;;23.83;14.32;;;;;;;4.08;81.53;100493.81;5096189;28;20043;-75
2021/04/17 01:01:43;;;;;;;25.05;14.98;;;;;;;3.83;81.52;100462.84;5114418;28;20380;-75
2021/04/17 01:04:31;;;;;;;22.63;13.32;;;;;;;3.95;82.15;100499.41;5079617;28;20361;-76
2021/04/17 01:07:15;;;;;;;24.02;14.10;;;;;;;3.97;81.99;100502.91;5114279;28;20024;-77
2021/04/17 01:09:44;;;;;;;23.67;14.43;;;;;;;3.93;82.45;100498.59;5114385;28;20028;-75
2021/04/17 01:12:32;;;;;;;25.67;14.93;;;;;;;3.85;82.29;100481.25;5096223;28;20031;-79
2021/04/17 01:14:58;;;;;;;27.95;14.93;;;;;;;3.67;82.65;100465.06;5114082;28;20054;-79
2021/04/17 01:17:25;;;;;;;24.38;14.82;;;;;;;3.86;82.85;100499.72;5114755;28;20492;-75
2021/04/17 01:20:02;;;;;;;26.83;14.68;;;;;;;3.91;82.83;100502.22;5114329;28;20068;-75
2021/04/17 01:22:29;;;;;;;26.63;15.15;;;;;;;3.84;83.10;100498.88;5095769;28;20028;-70
2021/04/17 01:25:11;;;;;;;26.58;15.23;;;;;;;3.47;83.22;100430.47;5096023;28;20384;-70
2021/04/17 01:27:38;;;;;;;25.42;14.93;;;;;;;3.73;83.48;100493.03;5114274;28;20036;-71
2021/04/17 01:30:13;;;;;;;23.98;14.90;;;;;;;3.83;83.08;100489.22;5114060;28;20059;-69
2021/04/17 01:32:39;;;;;;;22.80;14.05;;;;;;;3.87;83.05;100490.88;5114560;28;20038;-71
2021/04/17 01:35:07;;;;;;;23.13;14.27;;;;;;;3.54;83.64;100454.91;5114110;28;20035;-77
2021/04/17 01:38:06;;;;;;;27.05;15.90;;;;;;;3.70;83.77;100495.78;5113573;28;20084;-78
2021/04/17 01:40:33;;;;;;;26.55;15.38;;;;;;;3.79;83.32;100498.16;5106541;28;20113;-77
2021/04/17 01:43:00;;;;;;;24.65;14.43;;;;;;;3.71;83.58;100494.88;5114773;28;20046;-73
2021/04/17 01:45:28;;;;;;;24.60;13.68;;;;;;;3.80;83.33;100494.59;5079338;28;20116;-75
2021/04/17 01:47:57;;;;;;;25.35;14.43;;;;;;;3.71;83.20;100487.81;5096224;28;20380;-74
2021/04/17 01:50:25;;;;;;;26.30;14.50;;;;;;;3.36;83.43;100433.41;5078763;28;20043;-73
2021/04/17 01:52:53;;;;;;;23.92;14.88;;;;;;;3.80;83.25;100493.75;5095373;28;20032;-78
2021/04/17 01:55:19;;;;;;;23.40;13.77;;;;;;;3.70;83.53;100477.31;5095460;28;20032;-79
2021/04/17 01:57:48;;;;;;;24.70;14.65;;;;;;;3.64;83.37;100466.91;5113866;28;20039;-78
2021/04/17 02:00:14;;;;;;;28.63;16.02;;;;;;;3.76;83.48;100477.13;5113778;28;20035;-79
2021/04/17 02:02:39;;;;;;;27.00;15.32;;;;;;;3.78;83.36;100480.59;5113475;28;20392;-75
2021/04/17 02:05:06;;;;;;;25.67;15.30;;;;;;;3.67;83.47;100461.56;5095873;28;20051;-75
2021/04/17 02:07:31;;;;;;;24.73;14.93;;;;;;;3.51;83.87;100444.44;5095337;28;20067;-77
2021/04/17 02:09:57;;;;;;;25.73;15.80;;;;;;;3.66;84.18;100475.66;5113335;28;20066;-78
2021/04/17 02:12:22;;;;;;;24.90;15.65;;;;;;;3.59;83.82;100467.06;5095220;28;20076;-78
2021/04/17 02:14:48;;;;;;;25.23;14.32;;;;;;;3.51;84.06;100455.00;5078559;28;20046;-74
2021/04/17 02:17:20;;;;;;;25.10;15.27;;;;;;;3.21;84.59;100407.47;5095015;28;20438;-76
2021/04/17 02:19:56;;;;;;;25.95;15.07;;;;;;;3.54;83.89;100454.91;5113467;28;20031;-76
2021/04/17 02:22:24;;;;;;;25.10;14.65;;;;;;;3.64;83.83;100472.19;5113274;28;20122;-75
2021/04/17 02:24:50;;;;;;;24.65;15.05;;;;;;;3.45;84.55;100451.59;5113872;28;20038;-73
2021/04/17 02:27:17;;;;;;;25.60;14.80;;;;;;;3.47;84.90;100462.09;5113295;28;20043;-73
2021/04/17 02:29:43;;;;;;;27.73;15.35;;;;;;;3.45;84.90;100461.28;5096282;28;20395;-76
2021/04/17 02:32:15;;;;;;;26.50;15.70;;;;;;;3.36;84.61;100441.31;5114804;28;20138;-75
2021/04/17 02:34:42;;;;;;;29.63;15.20;;;;;;;3.52;84.52;100454.94;5114117;28;20465;-75
2021/04/17 02:37:08;;;;;;;25.02;14.82;;;;;;;3.24;84.06;100393.34;5114598;28;20256;-74
2021/04/17 02:39:34;;;;;;;27.42;15.48;;;;;;;3.56;84.38;100446.03;5114870;28;20031;-75
2021/04/17 02:41:59;;;;;;;26.00;14.73;;;;;;;3.59;83.92;100453.00;5079502;28;20039;-74
2021/04/17 02:44:25;;;;;;;25.90;15.48;;;;;;;3.14;84.20;100383.06;5112704;28;20035;-75
2021/04/17 02:46:50;;;;;;;25.40;15.98;;;;;;;3.43;84.57;100453.44;5113443;28;20118;-74
2021/04/17 02:49:16;;;;;;;26.60;15.73;;;;;;;3.32;85.31;100455.50;5113228;28;20457;-77
2021/04/17 02:51:41;;;;;;;27.02;15.18;;;;;;;3.34;85.38;100458.09;5113428;28;20480;-78
2021/04/17 02:54:06;;;;;;;26.23;16.02;;;;;;;3.20;85.74;100454.97;5081375;28;20032;-77
2021/04/17 02:56:32;;;;;;;26.65;15.57;;;;;;;3.19;nan;100456.75;5098412;28;20042;-77
2021/04/17 02:58:58;;;;;;;28.27;17.02;;;;;;;3.08;86.71;100456.13;5098717;28;20024;-77
2021/04/17 03:01:23;;;;;;;26.88;15.93;;;;;;;2.84;87.10;100431.31;5098626;28;20034;-75
2021/04/17 03:03:49;;;;;;;28.05;16.27;;;;;;;2.95;86.68;100429.25;5098914;28;20032;-77
2021/04/17 03:06:14;;;;;;;28.67;16.02;;;;;;;3.16;86.60;100460.31;5081658;28;20038;-75
2021/04/17 03:08:39;;;;;;;27.50;15.57;;;;;;;3.22;86.18;100454.03;5116661;28;20043;-75
2021/04/17 03:11:05;;;;;;;27.25;15.27;;;;;;;3.26;85.84;100454.78;5098869;28;20070;-75
2021/04/17 03:13:31;;;;;;;27.02;15.43;;;;;;;3.33;86.00;100457.22;5098316;28;20023;-75
2021/04/17 03:15:56;;;;;;;28.02;16.17;;;;;;;3.35;85.57;100444.00;5098171;28;20107;-75
2021/04/17 03:18:22;;;;;;;32.47;16.17;;;;;;;3.40;85.15;100442.97;5098120;28;20473;-76
2021/04/17 03:20:48;;;;;;;29.45;16.50;;;;;;;3.09;85.73;100427.13;5098572;28;20032;-75
2021/04/17 03:23:14;;;;;;;30.70;17.05;;;;;;;3.00;86.54;100427.38;5116694;28;20058;-79
2021/04/17 03:25:39;;;;;;;28.38;16.08;;;;;;;2.98;86.86;100434.44;5116124;28;20038;-75
2021/04/17 03:28:05;;;;;;;26.40;15.82;;;;;;;3.02;86.63;100427.34;5081389;28;20039;-75
2021/04/17 03:30:30;;;;;;;29.67;16.40;;;;;;;2.97;87.16;100453.78;5097937;28;20036;-75
2021/04/17 03:33:00;;;;;;;28.25;16.23;;;;;;;2.86;86.93;100429.50;5081513;28;20419;-75
2021/04/17 03:35:27;;;;;;;27.25;16.85;;;;;;;3.01;87.40;100450.19;5097746;28;20050;-75
2021/04/17 03:37:53;;;;;;;28.10;16.70;;;;;;;3.15;86.89;100441.91;5098564;28;20109;-76
2021/04/17 03:40:19;;;;;;;27.95;16.33;;;;;;;3.21;86.59;100457.56;5097915;28;20453;-74
2021/04/17 03:42:45;;;;;;;30.08;17.50;;;;;;;3.23;86.01;100442.56;5116211;28;20032;-74
2021/04/17 03:45:11;;;;;;;27.23;15.98;;;;;;;3.20;85.70;100421.56;5116349;28;20058;-74
2021/04/17 03:47:37;;;;;;;27.38;15.77;;;;;;;3.30;85.81;100443.28;5097447;28;20130;-74
2021/04/17 03:50:08;;;;;;;31.20;17.70;;;;;;;3.05;86.23;100424.59;5116096;28;20119;-75
2021/04/17 03:52:34;;;;;;;30.70;17.20;;;;;;;3.23;86.62;100445.19;5080413;28;20040;-75
2021/04/17 03:55:00;;;;;;;28.63;17.30;;;;;;;3.18;86.19;100444.44;5097726;28;20043;-74
2021/04/17 03:57:26;;;;;;;32.05;17.20;;;;;;;3.04;86.51;100422.88;5097484;28;20031;-75
2021/04/17 03:59:51;;;;;;;29.88;17.17;;;;;;;2.99;86.47;100430.03;5115912;28;20423;-76
2021/04/17 04:02:17;;;;;;;29.95;17.10;;;;;;;3.04;87.07;100443.97;5115903;28;20078;-76
2021/04/17 04:04:43;;;;;;;30.95;17.73;;;;;;;3.09;87.05;100450.84;5096922;28;20032;-75
2021/04/17 04:07:09;;;;;;;29.95;17.08;;;;;;;3.08;86.88;100450.88;5081038;28;20472;-77
2021/04/17 04:09:34;;;;;;;31.50;17.42;;;;;;;3.12;86.92;100452.53;5115189;28;20082;-77
2021/04/17 04:12:00;;;;;;;29.13;16.63;;;;;;;3.15;86.69;100453.31;5115798;28;20469;-77
2021/04/17 04:14:26;;;;;;;31.15;17.20;;;;;;;3.13;87.03;100457.75;5096907;28;20031;-75
2021/04/17 04:16:51;;;;;;;29.45;17.00;;;;;;;3.13;86.77;100449.00;5115739;28;20055;-75
2021/04/17 04:19:17;;;;;;;25.98;16.20;;;;;;;3.04;86.79;100430.78;5097295;28;20380;-77
2021/04/17 04:21:42;;;;;;;30.55;16.63;;;;;;;3.10;86.69;100447.31;5115015;28;20438;-77
2021/04/17 04:24:09;;;;;;;31.05;18.10;;;;;;;3.04;86.95;100438.69;5091185;28;20434;-76
2021/04/17 04:26:35;;;;;;;27.92;17.05;;;;;;;3.33;86.38;100462.50;5114848;28;20032;-77
2021/04/17 04:29:01;;;;;;;27.73;16.67;;;;;;;3.49;84.28;100390.88;5115480;28;20132;-77
2021/04/17 04:31:27;;;;;;;27.98;16.83;;;;;;;4.24;82.47;100466.00;5096813;28;20036;-76
2021/04/17 04:33:52;;;;;;;28.98;16.75;;;;;;;4.53;80.68;100476.53;5080332;28;20482;-76
2021/04/17 04:36:18;;;;;;;27.13;16.17;;;;;;;4.40;80.41;100464.63;5097592;28;20484;-75
2021/04/17 04:38:43;;;;;;;28.83;17.30;;;;;;;4.28;81.26;100481.72;5079767;28;20043;-76
2021/04/17 04:41:09;;;;;;;29.42;17.60;;;;;;;4.22;81.63;100470.47;5114919;28;20042;-77
2021/04/17 04:43:34;;;;;;;26.25;16.30;;;;;;;4.24;81.52;100474.78;5096635;28;20034;-76
2021/04/17 04:46:00;;;;;;;29.17;17.40;;;;;;;4.26;81.01;100458.94;5096880;28;20063;-77
2021/04/17 04:48:25;;;;;;;30.48;17.08;;;;;;;4.44;80.78;100478.59;5114647;28;20036;-78
2021/04/17 04:50:51;;;;;;;27.88;17.05;;;;;;;4.46;81.04;100477.66;5096571;28;20527;-76
2021/04/17 04:53:16;;;;;;;30.77;18.08;;;;;;;4.34;80.88;100466.59;5080008;28;20033;-77
2021/04/17 04:55:42;;;;;;;30.38;17.63;;;;;;;4.28;81.16;100480.88;5096623;28;20043;-78
2021/04/17 04:58:07;;;;;;;28.35;17.33;;;;;;;4.37;81.20;100480.59;5080096;28;20038;-76
2021/04/17 05:00:33;;;;;;;28.92;17.30;;;;;;;4.40;81.00;100480.47;5096464;28;20123;-77
2021/04/17 05:02:59;;;;;;;29.95;17.45;;;;;;;4.60;80.27;100471.91;5103678;28;20063;-77
2021/04/17 05:05:24;;;;;;;31.65;17.90;;;;;;;4.68;79.55;100474.31;5117148;28;20036;-79
2021/04/17 05:07:50;;;;;;;28.30;17.00;;;;;;;4.78;79.07;100475.75;5096748;28;20059;-79
2021/04/17 05:10:15;;;;;;;31.38;17.65;;;;;;;4.82;79.13;100474.72;5080713;28;20036;-79
2021/04/17 05:12:41;;;;;;;28.27;17.42;;;;;;;4.81;79.16;100473.00;5079562;28;20073;-76
2021/04/17 05:15:08;;;;;;;29.23;18.20;;;;;;;4.79;79.16;100466.91;5078750;28;20028;-76
2021/04/17 05:17:33;;;;;;;28.88;17.13;;;;;;;4.88;78.97;100471.88;5095751;28;20054;-77
2021/04/17 05:19:58;;;;;;;29.02;17.83;;;;;;;4.94;78.76;100473.47;5079184;28;20035;-76
2021/04/17 05:22:24;;;;;;;30.25;17.77;;;;;;;4.99;78.54;100476.81;5079351;28;20031;-76
2021/04/17 05:24:50;;;;;;;32.83;19.92;;;;;;;5.01;78.00;100446.75;5113926;28;20043;-76
2021/04/17 05:27:16;;;;;;;35.33;20.45;;;;;;;5.22;77.05;100470.75;5114357;28;20031;-77
2021/04/17 05:29:42;;;;;;;34.60;19.10;;;;;;;5.37;76.43;100473.72;5113821;28;20058;-77
2021/04/17 05:32:08;;;;;;;33.40;20.38;;;;;;;5.50;75.17;100466.22;5095588;28;20035;-77
2021/04/17 05:34:35;;;;;;;32.25;19.17;;;;;;;5.59;75.08;100471.16;5095229;28;20093;-82
2021/04/17 05:37:00;;;;;;;28.98;18.35;;;;;;;5.68;75.35;100477.91;5113982;28;20036;-77
2021/04/17 05:39:26;;;;;;;32.72;19.08;;;;;;;5.63;74.88;100446.31;5079008;28;20429;-76
2021/04/17 05:41:52;;;;;;;32.83;19.52;;;;;;;5.87;75.00;100470.13;5095640;28;20084;-78
2021/04/17 05:44:18;;;;;;;36.45;18.50;;;;;;;6.12;74.10;100476.28;5113857;28;20027;-77
2021/04/17 05:46:43;;;;;;;32.90;18.38;;;;;;;6.03;73.13;100416.59;5078585;28;20036;-78
2021/04/17 05:49:10;;;;;;;33.67;17.95;;;;;;;6.41;72.66;100453.09;5095863;28;20031;-74
2021/04/17 05:51:38;;;;;;;33.15;19.10;;;;;;;6.51;73.03;100473.00;5095565;28;20036;-75
2021/04/17 05:54:04;;;;;;;30.38;18.00;;;;;;;6.55;72.33;100474.59;5078877;28;20134;-75
2021/04/17 05:56:29;;;;;;;33.90;18.67;;;;;;;6.69;71.70;100472.25;5113120;28;20032;-76
2021/04/17 05:58:55;;;;;;;30.48;18.70;;;;;;;6.86;70.74;100461.84;5113436;28;20491;-75
2021/04/17 06:01:21;;;;;;;31.50;18.88;;;;;;;7.54;69.44;100478.38;5095457;28;20034;-73
2021/04/17 06:03:46;;;;;;;32.28;19.20;;;;;;;8.08;66.71;100468.81;5094984;28;20032;-77
2021/04/17 06:06:12;;;;;;;32.78;18.67;;;;;;;8.76;64.76;100461.19;5091769;28;20042;-77
2021/04/17 06:08:38;;;;;;;31.40;19.00;;;;;;;9.28;62.64;100464.75;5085520;28;20081;-75
2021/04/17 06:11:07;;;;;;;29.40;17.98;;;;;;;9.68;61.04;100457.34;5081436;28;20032;-73
2021/04/17 06:13:36;;;;;;;29.48;19.58;;;;;;;9.79;60.58;100462.09;5104587;28;20392;-76
2021/04/17 06:16:04;;;;;;;28.65;18.27;;;;;;;10.07;59.97;100449.00;5095356;28;20509;-80
2021/04/17 06:18:30;;;;;;;28.70;18.38;;;;;;;10.39;57.58;100452.56;5095665;28;20053;-78
2021/04/17 06:20:56;;;;;;;26.70;17.35;;;;;;;10.92;55.28;100453.13;5114223;28;20460;-78
2021/04/17 06:23:22;;;;;;;25.52;17.55;;;;;;;11.16;54.12;100457.88;5113855;28;20035;-77
2021/04/17 06:25:48;;;;;;;25.50;17.02;;;;;;;10.52;55.02;100432.28;5113795;28;20024;-77
2021/04/17 06:28:13;;;;;;;26.63;17.65;;;;;;;10.35;54.85;100364.84;5116033;28;20032;-79
2021/04/17 06:30:39;;;;;;;24.98;17.52;;;;;;;11.24;54.05;100444.06;5118087;28;20131;-77
2021/04/17 06:33:05;;;;;;;25.27;17.33;;;;;;;10.69;55.61;100430.44;5099576;28;20028;-76
2021/04/17 06:35:31;;;;;;;25.90;17.40;;;;;;;11.11;54.80;100454.63;5088567;28;20108;-76
2021/04/17 06:37:57;;;;;;;26.75;17.52;;;;;;;11.59;54.24;100449.09;5069557;28;20024;-71
2021/04/17 06:40:23;;;;;;;23.27;15.60;;;;;;;11.27;53.68;100457.22;5107512;28;20016;-72
2021/04/17 06:42:51;;;;;;;21.42;14.93;;;;;;;10.19;56.46;100434.13;5088000;28;20058;-71
2021/04/17 06:45:22;;;;;;;22.40;16.25;;;;;;;10.31;55.92;100398.81;5107500;28;20036;-77
2021/04/17 06:47:48;;;;;;;24.25;15.90;;;;;;;10.50;56.13;100433.28;5102135;28;20500;-74
2021/04/17 06:50:14;;;;;;;26.25;17.58;;;;;;;10.44;56.05;100452.31;5106526;28;20028;-77
2021/04/17 06:52:41;;;;;;;26.40;17.48;;;;;;;10.44;56.86;100457.66;5089916;28;20035;-76
2021/04/17 06:55:09;;;;;;;26.13;17.10;;;;;;;10.03;57.26;100407.44;5117525;28;20031;-74
2021/04/17 06:57:35;;;;;;;23.75;17.00;;;;;;;10.13;56.42;100453.97;5099011;28;20369;-74
2021/04/17 07:00:03;;;;;;;25.85;16.98;;;;;;;9.64;57.66;100445.97;5098471;28;20039;-74
2021/04/17 07:02:29;;;;;;;26.35;15.90;;;;;;;9.51;58.02;100450.25;5117254;28;20063;-79
2021/04/17 07:04:54;;;;;;;24.65;16.30;;;;;;;9.21;59.40;100420.75;5098602;28;20162;-78
2021/04/17 07:07:20;;;;;;;23.63;15.27;;;;;;;9.23;58.95;100428.66;5098845;28;20445;-77
2021/04/17 07:09:45;;;;;;;24.90;15.52;;;;;;;9.30;59.29;100448.69;5117525;28;20027;-77
2021/04/17 07:12:11;;;;;;;22.55;14.40;;;;;;;8.42;60.96;100392.88;5099378;28;20039;-81
2021/04/17 07:14:52;;;;;;;24.50;15.95;;;;;;;9.02;60.96;100451.91;5117163;28;20473;-82
2021/04/17 07:17:18;;;;;;;26.83;16.08;;;;;;;8.83;60.84;100454.63;5099196;28;20060;-79
2021/04/17 07:19:51;;;;;;;24.85;14.35;;;;;;;9.00;59.62;100449.34;5117124;28;20032;-77
2021/04/17 07:22:30;;;;;;;24.50;15.45;;;;;;;8.93;59.87;100455.88;5099649;28;20027;-73
2021/04/17 07:25:14;;;;;;;22.15;14.60;;;;;;;8.68;60.40;100434.94;5098383;28;20028;-74
2021/04/17 07:27:45;;;;;;;25.45;15.90;;;;;;;8.75;60.87;100406.28;5116675;28;20028;-75
2021/04/17 07:30:17;;;;;;;24.38;14.77;;;;;;;9.08;60.85;100455.13;5116608;28;20032;-73
2021/04/17 07:32:44;;;;;;;23.35;14.50;;;;;;;8.97;60.61;100454.78;5116430;28;20034;-69
2021/04/17 07:35:14;;;;;;;24.80;15.68;;;;;;;9.04;60.50;100434.91;5116047;28;20043;-78
2021/04/17 07:37:42;;;;;;;21.00;13.13;;;;;;;8.86;59.29;100436.69;5098015;28;20365;-75
2021/04/17 07:40:25;;;;;;;22.17;14.30;;;;;;;8.82;59.99;100427.16;5115482;28;20031;-72
2021/04/17 07:42:52;;;;;;;;;;;;;;;8.98;60.45;100448.56;5079862;28;20154;-76
2021/04/17 07:45:30;;;;;;;24.20;14.95;;;;;;;9.15;60.73;100442.34;5077681;28;19916;-77
2021/04/17 07:48:17;;;;;;;22.45;13.82;;;;;;;9.10;59.02;100384.06;5095540;28;20024;-76
2021/04/17 07:50:43;;;;;;;23.98;14.52;;;;;;;9.63;57.81;100438.94;5095709;28;20101;-77
2021/04/17 07:53:27;;;;;;;22.80;14.85;;;;;;;9.59;57.93;100436.53;5095267;28;20032;-83
2021/04/17 07:55:52;;;;;;;22.52;14.48;;;;;;;9.49;57.90;100441.47;5095933;28;20032;-79
2021/04/17 07:58:18;;;;;;;23.75;15.00;;;;;;;9.54;57.75;100436.75;5096115;28;20077;-80
2021/04/17 08:00:44;;;;;;;22.38;14.63;;;;;;;9.66;58.42;100433.47;5095894;28;20032;-82
2021/04/17 08:03:10;;;;;;;21.27;13.88;;;;;;;9.58;57.36;100432.16;5077477;28;20032;-80
2021/04/17 08:05:37;;;;;;;23.40;13.93;;;;;;;9.71;57.74;100444.72;5095710;28;20082;-78
2021/04/17 08:08:02;;;;;;;20.65;13.13;;;;;;;9.63;56.56;100430.06;5077193;28;20130;-74
2021/04/17 08:10:28;;;;;;;19.88;13.10;;;;;;;9.58;56.86;100435.66;5100283;28;20182;-82
2021/04/17 08:12:59;;;;;;;19.52;12.32;;;;;;;9.87;56.53;100431.44;5100563;28;20032;-76
2021/04/17 08:15:25;;;;;;;20.85;13.20;;;;;;;9.88;58.04;100437.63;5076996;28;20071;-76
2021/04/17 08:17:52;;;;;;;22.48;13.57;;;;;;;9.81;57.49;100437.09;5095308;28;20066;-78
2021/04/17 08:20:20;;;;;;;21.35;13.23;;;;;;;9.97;56.46;100415.81;5093906;28;20025;-75
2021/04/17 08:22:49;;;;;;;20.90;13.80;;;;;;;10.10;56.37;100430.16;5074883;28;20032;-73
2021/04/17 08:25:19;;;;;;;21.40;13.40;;;;;;;10.05;55.04;100432.25;5099432;28;20028;-76
2021/04/17 08:27:45;;;;;;;21.58;12.82;;;;;;;9.96;55.83;100435.41;5094071;28;20078;-77
2021/04/17 08:30:28;;;;;;;21.23;13.07;;;;;;;10.10;55.17;100421.31;5075707;28;20488;-79
2021/04/17 08:32:54;;;;;;;20.60;12.90;;;;;;;9.93;55.70;100369.78;5094276;28;20111;-73
2021/04/17 08:35:25;;;;;;;20.15;12.52;;;;;;;10.48;55.76;100419.19;5058436;28;20036;-74
2021/04/17 08:37:56;;;;;;;21.48;13.70;;;;;;;10.62;54.83;100416.59;5076591;28;20427;-76
2021/04/17 08:40:37;;;;;;;20.27;13.32;;;;;;;10.69;54.65;100417.94;5094313;28;20035;-74
2021/04/17 08:43:18;;;;;;;20.50;13.40;;;;;;;10.76;54.11;100408.66;5095089;28;20032;-85
2021/04/17 08:46:03;;;;;;;19.33;13.55;;;;;;;10.75;53.84;100406.94;5076827;28;20028;-73
2021/04/17 08:48:53;;;;;;;20.33;13.23;;;;;;;10.49;55.42;100404.91;5093349;28;20458;-69
2021/04/17 08:51:21;;;;;;;21.27;12.85;;;;;;;10.61;55.29;100414.84;5079550;28;20354;-69
2021/04/17 08:53:51;;;;;;;22.85;13.88;;;;;;;10.59;54.42;100376.75;5055180;28;20033;-66
2021/04/17 08:56:17;;;;;;;19.92;12.80;;;;;;;10.52;54.72;100399.41;5091805;28;20056;-68
2021/04/17 08:59:09;;;;;;;22.25;12.57;;;;;;;10.16;55.72;100405.00;5093879;28;20071;-64
2021/04/17 09:01:42;;;;;;;20.25;13.30;;;;;;;10.32;55.69;100401.38;5093655;28;20522;-64
2021/04/17 09:04:12;;;;;;;19.67;13.05;;;;;;;10.48;55.36;100411.19;5094344;28;20032;-66
2021/04/17 09:06:46;;;;;;;22.02;13.20;;;;;;;10.50;54.37;100411.94;5075529;28;20045;-67
2021/04/17 09:09:19;;;;;;;21.08;13.57;;;;;;;10.62;54.75;100395.25;5092819;28;20036;-66
2021/04/17 09:11:52;;;;;;;20.20;12.85;;;;;;;10.46;54.03;100375.75;5094237;28;20044;-65
2021/04/17 09:14:27;;;;;;;21.25;12.73;;;;;;;10.89;52.77;100395.44;5075922;28;20165;-65
2021/04/17 09:16:58;;;;;;;20.38;13.02;;;;;;;10.66;52.68;100399.47;5093912;28;20051;-67
2021/04/17 09:19:39;;;;;;;18.15;11.95;;;;;;;10.75;52.27;100393.59;5093689;28;20020;-66
2021/04/17 09:22:25;;;;;;;20.98;13.18;;;;;;;10.64;53.81;100397.84;5093991;28;20032;-66
2021/04/17 09:24:52;;;;;;;19.90;12.95;;;;;;;10.52;53.53;100346.06;5094113;28;20511;-67
2021/04/17 09:27:35;;;;;;;21.65;12.95;;;;;;;10.96;53.69;100393.28;5058894;28;20032;-66
2021/04/17 09:30:14;;;;;;;19.35;12.85;;;;;;;11.11;52.47;100392.38;5093934;28;20036;-66
2021/04/17 09:32:43;;;;;;;20.27;12.98;;;;;;;10.59;53.18;100363.41;5093676;28;20073;-66
2021/04/17 09:35:29;;;;;;;18.27;12.35;;;;;;;10.49;53.29;100395.09;5093962;28;20106;-65
2021/04/17 09:37:54;;;;;;;20.33;13.00;;;;;;;10.54;53.90;100400.19;5094090;28;20034;-66
2021/04/17 09:40:29;;;;;;;18.85;12.77;;;;;;;10.64;53.80;100371.16;5093254;28;20073;-66
2021/04/17 09:42:54;;;;;;;21.30;13.02;;;;;;;10.63;53.07;100369.44;5093699;28;20089;-66
2021/04/17 09:45:29;;;;;;;20.95;12.65;;;;;;;10.79;53.10;100381.78;5093328;28;20032;-66
2021/04/17 09:47:59;;;;;;;17.70;11.57;;;;;;;10.91;52.17;100392.69;5093504;28;20032;-67
2021/04/17 09:50:31;;;;;;;17.63;11.70;;;;;;;10.78;52.79;100388.06;5093361;28;20032;-66
2021/04/17 09:53:08;;;;;;;18.73;11.63;;;;;;;10.86;52.75;100379.63;5093809;28;20061;-66
2021/04/17 09:55:48;;;;;;;18.08;11.27;;;;;;;10.97;53.47;100377.16;5093367;28;20024;-66
2021/04/17 09:58:30;;;;;;;16.13;10.27;;;;;;;10.80;51.52;100361.28;5093665;28;20031;-67
2021/04/17 10:01:03;;;;;;;17.05;10.90;;;;;;;10.59;52.93;100328.72;5093294;28;20111;-66
2021/04/17 10:03:31;;;;;;;15.75;10.82;;;;;;;10.95;51.60;100368.38;5092992;28;20042;-66
2021/04/17 10:05:58;;;;;;;19.38;10.63;;;;;;;11.10;52.17;100370.16;5093407;28;20067;-66
2021/04/17 10:08:29;;;;;;;16.45;11.05;;;;;;;11.20;51.54;100359.78;5075316;28;20081;-66
2021/04/17 10:10:54;;;;;;;16.00;11.15;;;;;;;11.27;51.99;100363.75;5093403;28;20109;-66
2021/04/17 10:13:44;;;;;;;15.82;10.38;;;;;;;11.42;49.67;100341.47;5075340;28;20457;-70
2021/04/17 10:16:11;;;;;;;20.63;11.00;;;;;;;11.46;50.56;100356.34;5093115;28;20078;-66
2021/04/17 10:18:41;;;;;;;16.83;10.88;;;;;;;11.55;50.16;100359.38;5093142;28;20362;-67
2021/04/17 10:21:07;;;;;;;14.63;9.82;;;;;;;11.65;50.06;100357.84;5093029;28;20074;-66
2021/04/17 10:23:33;;;;;;;16.50;10.45;;;;;;;11.57;49.30;100333.44;5093050;28;20040;-67
2021/04/17 10:26:07;;;;;;;17.67;10.43;;;;;;;11.21;50.70;100334.78;5093058;28;20071;-66
2021/04/17 10:28:34;;;;;;;15.23;9.95;;;;;;;11.68;50.79;100352.34;5093094;28;20032;-67
2021/04/17 10:31:19;;;;;;;15.80;10.20;;;;;;;12.04;50.82;100344.66;5092827;28;20473;-66
2021/04/17 10:33:47;;;;;;;14.95;9.90;;;;;;;12.26;48.85;100351.31;5093302;28;20036;-66
2021/04/17 10:36:19;;;;;;;14.90;10.00;;;;;;;12.36;49.64;100344.38;5093014;28;20043;-66
2021/04/17 10:38:44;;;;;;;15.05;9.40;;;;;;;12.00;47.10;100295.03;5074614;28;20039;-66
2021/04/17 10:41:18;;;;;;;15.27;9.77;;;;;;;12.02;47.59;100327.84;5074828;28;20032;-66
2021/04/17 10:43:44;;;;;;;12.88;9.40;;;;;;;11.85;48.48;100341.44;5059205;28;20461;-66
2021/04/17 10:46:10;;;;;;;14.75;9.68;;;;;;;11.74;48.97;100341.25;5093289;28;20110;-66
2021/04/17 10:48:44;;;;;;;15.18;8.70;;;;;;;11.61;50.17;100337.66;5092542;28;20489;-66
2021/04/17 10:51:12;;;;;;;14.25;8.82;;;;;;;11.39;49.96;100330.13;5074881;28;20425;-67
2021/04/17 10:53:42;;;;;;;13.23;8.98;;;;;;;11.44;50.02;100320.00;5092404;28;20085;-67
2021/04/17 10:56:18;;;;;;;13.55;9.43;;;;;;;11.28;50.41;100304.06;5092550;28;20524;-65
2021/04/17 10:58:47;;;;;;;14.32;8.70;;;;;;;11.46;49.80;100318.94;5092567;28;20096;-65
2021/04/17 11:01:23;;;;;;;15.55;7.75;;;;;;;11.46;50.29;100342.97;5092702;28;20073;-62
2021/04/17 11:04:00;;;;;;;12.93;8.25;;;;;;;11.29;50.13;100324.50;5092366;28;20040;-64
2021/04/17 11:06:28;;;;;;;13.95;9.15;;;;;;;11.38;50.41;100318.56;5092530;28;20089;-66
2021/04/17 11:09:18;;;;;;;14.23;9.82;;;;;;;11.54;50.00;100322.94;5074654;28;20036;-69
2021/04/17 11:12:01;;;;;;;39.85;10.23;;;;;;;11.56;50.69;100342.41;5074271;28;20384;-63
2021/04/17 11:14:28;;;;;;;17.00;9.45;;;;;;;11.74;49.73;100335.91;5094239;28;20110;-64
2021/04/17 11:16:54;;;;;;;14.18;8.82;;;;;;;11.79;49.50;100335.63;5096272;28;20055;-63
2021/04/17 11:19:23;;;;;;;14.02;9.57;;;;;;;11.86;49.88;100348.50;5096392;28;20358;-69
2021/04/17 11:22:11;;;;;;;14.95;9.40;;;;;;;11.29;50.42;100348.53;5096099;28;20016;-69